Time;durP1;ratioP1;P1;durP2;ratioP2;P2;SDS_P1;SDS_P2;PMS_P1;PMS_P2;Temp;Humidity;BMP_temperature;BMP_pressure;BME280_temperature;BME280_humidity;BME280_pressure;Samples;Min_cycle;Max_cycle;Signal;HPM_P1;HPM_P2
2022/12/16 00:00:07;;;;;;;22.42;12.95;;;;;;;1.66;66.86;100414.50;5089397;28;20070;-66
2022/12/16 00:02:35;;;;;;;28.52;13.43;;;;;;;1.77;66.80;100416.19;5100062;28;20410;-66
2022/12/16 00:05:03;;;;;;;25.48;13.45;;;;;;;1.81;66.94;100422.75;5115882;28;20048;-67
2022/12/16 00:07:30;;;;;;;25.63;13.77;;;;;;;1.60;67.10;100416.38;5095612;28;20047;-67
2022/12/16 00:09:57;;;;;;;27.00;15.13;;;;;;;1.42;67.87;100429.53;5095292;28;20040;-67
2022/12/16 00:12:25;;;;;;;30.90;16.38;;;;;;;1.48;68.02;100423.91;5094158;28;20048;-69
2022/12/16 00:14:52;;;;;;;26.05;14.88;;;;;;;1.69;67.40;100428.38;5095785;28;20051;-68
2022/12/16 00:17:20;;;;;;;29.35;14.75;;;;;;;1.64;67.88;100439.19;5095017;28;20461;-65
2022/12/16 00:19:48;;;;;;;26.08;15.65;;;;;;;1.61;68.03;100442.44;5109137;28;20046;-65
2022/12/16 00:22:16;;;;;;;31.50;16.15;;;;;;;1.82;67.24;100438.78;5078935;28;20046;-65
2022/12/16 00:24:44;;;;;;;28.95;15.65;;;;;;;1.93;67.28;100453.22;5076645;28;20422;-67
2022/12/16 00:27:11;;;;;;;31.92;16.70;;;;;;;1.71;67.45;100449.84;5077082;28;20063;-64
2022/12/16 00:29:38;;;;;;;32.30;15.93;;;;;;;1.76;67.95;100447.94;5077164;28;20044;-66
2022/12/16 00:32:06;;;;;;;29.52;15.82;;;;;;;1.91;67.45;100456.22;5094961;28;20071;-66
2022/12/16 00:34:34;;;;;;;29.80;16.52;;;;;;;1.52;68.22;100463.00;5076403;28;20056;-66
2022/12/16 00:37:01;;;;;;;31.42;17.13;;;;;;;1.50;68.69;100454.28;5094987;28;20521;-66
2022/12/16 00:39:28;;;;;;;35.65;17.02;;;;;;;1.53;68.88;100464.66;5094980;28;20063;-66
2022/12/16 00:41:56;;;;;;;27.83;16.58;;;;;;;1.52;69.03;100465.72;5094753;28;20047;-66
2022/12/16 00:44:23;;;;;;;31.15;17.58;;;;;;;1.61;69.08;100466.88;5077183;28;20051;-65
2022/12/16 00:46:50;;;;;;;36.25;17.25;;;;;;;1.44;69.50;100458.06;5095457;28;20063;-67
2022/12/16 00:49:17;;;;;;;33.25;17.60;;;;;;;1.43;69.76;100464.56;5059655;28;20513;-65
2022/12/16 00:51:45;;;;;;;38.40;18.27;;;;;;;1.58;69.53;100461.13;5094655;28;20475;-67
2022/12/16 00:54:12;;;;;;;32.80;16.98;;;;;;;1.55;69.36;100457.03;5094749;28;20044;-66
2022/12/16 00:56:40;;;;;;;32.58;17.73;;;;;;;1.62;69.35;100460.34;5094669;28;20521;-65
2022/12/16 00:59:07;;;;;;;34.70;17.80;;;;;;;1.65;68.68;100459.03;5076694;28;20047;-64
2022/12/16 01:01:34;;;;;;;38.10;17.80;;;;;;;1.65;69.23;100465.28;5095609;28;20048;-66
2022/12/16 01:04:02;;;;;;;39.30;18.27;;;;;;;1.84;68.91;100471.91;5095182;28;20055;-66
2022/12/16 01:06:29;;;;;;;54.97;18.02;;;;;;;1.79;68.90;100465.63;5104220;28;20071;-66
2022/12/16 01:08:56;;;;;;;39.83;17.63;;;;;;;1.59;69.58;100470.91;5094987;28;20039;-66
2022/12/16 01:11:25;;;;;;;51.05;19.90;;;;;;;1.65;69.81;100478.03;5093682;28;20043;-66
2022/12/16 01:13:53;;;;;;;43.30;17.50;;;;;;;1.68;69.25;100481.03;5060374;28;20434;-67
2022/12/16 01:16:21;;;;;;;43.28;17.17;;;;;;;1.27;71.14;100478.25;5094196;28;20067;-67
2022/12/16 01:18:48;;;;;;;45.58;18.10;;;;;;;1.50;71.03;100484.16;5077311;28;20056;-67
2022/12/16 01:21:16;;;;;;;42.75;16.88;;;;;;;1.13;71.91;100494.94;5075887;28;20044;-66
2022/12/16 01:23:43;;;;;;;52.53;18.25;;;;;;;1.09;73.25;100498.44;5076845;28;20529;-66
2022/12/16 01:26:15;;;;;;;41.10;18.13;;;;;;;1.24;72.46;100498.56;5076067;28;20063;-66
2022/12/16 01:28:43;;;;;;;46.28;18.30;;;;;;;1.65;71.90;100502.44;5095487;28;20052;-65
2022/12/16 01:31:11;;;;;;;32.53;18.33;;;;;;;1.79;70.31;100500.94;5087324;28;20051;-65
2022/12/16 01:33:39;;;;;;;34.90;16.52;;;;;;;1.91;70.07;100499.66;5094009;28;20048;-68
2022/12/16 01:36:07;;;;;;;34.63;16.92;;;;;;;1.86;69.86;100504.25;5107462;28;20067;-67
2022/12/16 01:38:35;;;;;;;29.27;16.98;;;;;;;1.17;71.34;100518.88;5064468;28;20055;-66
2022/12/16 01:41:03;;;;;;;35.63;16.92;;;;;;;1.39;70.98;100523.16;5079754;28;20057;-66
2022/12/16 01:43:33;;;;;;;36.47;17.95;;;;;;;1.14;72.07;100526.44;5080766;28;20135;-67
2022/12/16 01:46:08;;;;;;;32.13;17.60;;;;;;;1.17;72.45;100524.28;5079466;28;20048;-66
2022/12/16 01:48:44;;;;;;;35.08;18.02;;;;;;;1.24;72.39;100525.69;5080400;28;20079;-65
2022/12/16 01:51:28;;;;;;;28.00;16.20;;;;;;;1.54;72.13;100530.59;5079861;28;20044;-65
2022/12/16 01:53:59;;;;;;;33.78;16.85;;;;;;;1.77;71.02;100541.09;5063834;28;20048;-66
2022/12/16 01:56:27;;;;;;;30.95;16.98;;;;;;;1.62;70.79;100540.97;5062621;28;20443;-66
2022/12/16 01:58:56;;;;;;;35.13;18.83;;;;;;;0.93;73.51;100553.59;5080382;28;20375;-66
2022/12/16 02:01:23;;;;;;;30.17;18.23;;;;;;;1.10;73.34;100557.03;5049586;28;20439;-66
2022/12/16 02:03:51;;;;;;;35.30;20.13;;;;;;;0.99;73.38;100563.44;5093621;28;20048;-66
2022/12/16 02:06:20;;;;;;;35.80;19.73;;;;;;;0.92;73.15;100570.94;5069880;28;20616;-66
2022/12/16 02:08:52;;;;;;;39.17;19.55;;;;;;;0.80;74.06;100571.06;5098162;28;20054;-66
2022/12/16 02:11:26;;;;;;;40.17;21.25;;;;;;;0.45;74.80;100573.34;5078668;28;20110;-66
2022/12/16 02:14:03;;;;;;;36.85;20.77;;;;;;;0.29;75.52;100576.91;5079494;28;20052;-65
2022/12/16 02:16:32;;;;;;;38.42;22.38;;;;;;;0.25;76.29;100574.94;5088541;28;20052;-65
2022/12/16 02:19:21;;;;;;;39.28;21.67;;;;;;;0.37;75.87;100568.34;5080171;28;20506;-67
2022/12/16 02:22:10;;;;;;;42.25;21.98;;;;;;;0.47;76.32;100564.97;5097200;28;20059;-66
2022/12/16 02:24:59;;;;;;;45.38;22.65;;;;;;;0.46;76.53;100574.97;5097051;28;20048;-66
2022/12/16 02:27:57;;;;;;;49.70;23.63;;;;;;;0.68;75.86;100569.56;5097353;28;20055;-67
2022/12/16 02:30:44;;;;;;;37.70;22.20;;;;;;;0.40;76.19;100569.75;5078895;28;20144;-66
2022/12/16 02:33:50;;;;;;;44.42;23.42;;;;;;;0.44;75.99;100574.41;5074478;28;20044;-66
2022/12/16 02:36:25;;;;;;;41.15;23.67;;;;;;;0.35;76.19;100569.69;5097205;28;20083;-66
2022/12/16 02:39:23;;;;;;;38.22;22.83;;;;;;;0.47;76.75;100573.88;5097366;28;20056;-67
2022/12/16 02:41:57;;;;;;;42.85;23.40;;;;;;;0.54;76.26;100568.31;5074619;28;20056;-67
2022/12/16 02:44:38;;;;;;;37.80;24.05;;;;;;;0.24;76.54;100570.59;5097523;28;20055;-65
2022/12/16 02:47:06;;;;;;;40.75;24.83;;;;;;;0.31;76.71;100577.47;5096929;28;20055;-66
2022/12/16 02:49:33;;;;;;;46.13;23.73;;;;;;;0.36;77.05;100566.72;5078668;28;20056;-65
2022/12/16 02:52:00;;;;;;;46.95;24.58;;;;;;;0.36;76.61;100566.72;5093418;28;20055;-66
2022/12/16 02:54:28;;;;;;;44.75;24.23;;;;;;;0.54;77.17;100573.72;5078321;28;20052;-66
2022/12/16 02:57:17;;;;;;;41.33;23.30;;;;;;;0.92;75.65;100576.38;5096960;28;20048;-65
2022/12/16 02:59:59;;;;;;;42.38;25.10;;;;;;;0.81;74.93;100582.72;5096531;28;20044;-66
2022/12/16 03:02:40;;;;;;;45.15;24.50;;;;;;;0.45;76.38;100575.22;5110398;28;20048;-66
2022/12/16 03:05:15;;;;;;;46.60;24.23;;;;;;;0.62;75.89;100576.81;5078785;28;20516;-66
2022/12/16 03:07:44;;;;;;;54.10;24.40;;;;;;;0.66;75.80;100577.94;5112544;28;20083;-65
2022/12/16 03:10:15;;;;;;;44.30;26.48;;;;;;;0.12;77.40;100580.72;5062154;28;20055;-66
2022/12/16 03:12:44;;;;;;;47.13;26.30;;;;;;;0.02;77.85;100586.78;5095820;28;20044;-65
2022/12/16 03:15:17;;;;;;;50.47;27.35;;;;;;;0.02;78.77;100588.69;5096795;28;20070;-67
2022/12/16 03:17:47;;;;;;;43.83;26.15;;;;;;;0.15;79.30;100589.16;5078817;28;20048;-65
2022/12/16 03:20:18;;;;;;;44.47;26.65;;;;;;;-0.19;80.21;100585.66;5078513;28;20364;-68
2022/12/16 03:22:47;;;;;;;42.83;25.08;;;;;;;-0.01;79.98;100588.13;5078359;28;20059;-66
2022/12/16 03:25:15;;;;;;;43.80;26.63;;;;;;;0.07;79.85;100584.16;5076955;28;20059;-65
2022/12/16 03:28:28;;;;;;;46.60;26.85;;;;;;;0.26;79.67;100587.41;5078704;28;20055;-68
2022/12/16 03:31:03;;;;;;;47.78;26.25;;;;;;;0.27;78.97;100591.75;5015934;28;20559;-66
2022/12/16 03:33:47;;;;;;;46.40;27.08;;;;;;;0.17;78.73;100594.31;5017063;28;20499;-65
2022/12/16 03:36:18;;;;;;;46.92;26.75;;;;;;;0.20;79.29;100600.06;5055256;28;20059;-65
2022/12/16 03:38:46;;;;;;;46.53;27.73;;;;;;;0.20;79.78;100605.47;5078050;28;20383;-66
2022/12/16 03:41:15;;;;;;;48.65;25.70;;;;;;;0.30;78.80;100607.53;5077673;28;20040;-67
2022/12/16 03:43:42;;;;;;;48.80;27.37;;;;;;;0.33;78.42;100613.25;5060058;28;20049;-66
2022/12/16 03:46:11;;;;;;;45.22;25.80;;;;;;;0.03;79.15;100617.41;5083832;28;20289;-66
2022/12/16 03:48:45;;;;;;;47.45;26.63;;;;;;;0.28;80.08;100612.38;5077346;28;20067;-66
2022/12/16 03:51:12;;;;;;;51.42;27.50;;;;;;;0.13;79.95;100612.13;5095662;28;20040;-66
2022/12/16 03:53:39;;;;;;;41.08;25.45;;;;;;;0.14;79.35;100617.28;5095308;28;20047;-66
2022/12/16 03:56:07;;;;;;;42.45;26.15;;;;;;;0.13;79.84;100604.84;5095627;28;20048;-66
2022/12/16 03:58:36;;;;;;;45.42;26.17;;;;;;;-0.08;80.44;100619.13;5095706;28;20052;-66
2022/12/16 04:01:04;;;;;;;48.30;26.25;;;;;;;0.16;80.71;100614.38;5095584;28;20430;-66
2022/12/16 04:03:31;;;;;;;45.70;26.40;;;;;;;0.10;79.97;100624.28;5061068;28;20059;-66
2022/12/16 04:05:59;;;;;;;41.92;25.33;;;;;;;0.21;80.34;100623.34;5076946;28;20055;-66
2022/12/16 04:08:26;;;;;;;45.85;25.73;;;;;;;0.29;79.17;100631.09;5087278;28;20045;-67
2022/12/16 04:25:33;;;;;;;38.10;23.17;;;;;;;0.17;80.16;100635.78;5079989;28;20051;-65
2022/12/16 04:28:01;;;;;;;37.83;23.17;;;;;;;0.11;80.40;100644.88;5060463;28;20517;-65
2022/12/16 04:30:33;;;;;;;46.63;23.45;;;;;;;0.24;80.37;100649.97;5095055;28;20052;-66
